createdAt,value
2022-09-27T00:00:50.721Z,11.08
2022-09-27T00:10:37.077Z,11.38
2022-09-27T00:15:39.032Z,11.13
2022-09-27T00:18:39.916Z,10.24
2022-09-27T00:24:28.315Z,10.75
2022-09-27T00:27:18.600Z,11.30
2022-09-27T00:30:04.115Z,10.14
2022-09-27T00:33:17.797Z,10.83
2022-09-27T00:35:49.659Z,10.04
2022-09-27T00:38:40.460Z,9.79
2022-09-27T00:44:06.851Z,9.97
2022-09-27T00:49:52.760Z,9.88
2022-09-27T00:52:51.200Z,9.82
2022-09-27T00:55:38.388Z,11.02
2022-09-27T00:58:14.616Z,9.78
2022-09-27T01:00:50.242Z,10.72
2022-09-27T01:03:38.879Z,10.99
2022-09-27T01:06:33.925Z,9.73
2022-09-27T01:09:22.571Z,9.61
2022-09-27T01:18:36.708Z,10.27
2022-09-27T01:25:22.137Z,9.61
2022-09-27T01:28:48.055Z,10.86
2022-09-27T01:31:43.027Z,10.60
2022-09-27T01:41:11.694Z,10.56
2022-09-27T01:43:49.072Z,10.53
2022-09-27T01:46:32.655Z,10.97
2022-09-27T01:49:13.724Z,9.69
2022-09-27T01:51:50.116Z,10.58
2022-09-27T01:54:25.741Z,11.02
2022-09-27T01:57:17.140Z,10.84
2022-09-27T02:00:07.827Z,10.51
2022-09-27T02:03:02.922Z,10.43
2022-09-27T02:12:16.384Z,10.98
2022-09-27T02:15:00.621Z,9.79
2022-09-27T02:17:35.039Z,10.93
2022-09-27T02:20:38.275Z,10.56
2022-09-27T02:23:24.736Z,10.58
2022-09-27T02:26:08.313Z,10.75
2022-09-27T02:29:15.811Z,10.13
2022-09-27T02:32:24.835Z,10.85
2022-09-27T02:35:07.492Z,10.26
2022-09-27T02:38:05.246Z,9.55
2022-09-27T02:40:52.061Z,10.63
2022-09-27T02:43:48.087Z,9.57
2022-09-27T02:46:39.001Z,9.61
2022-09-27T02:49:46.799Z,9.57
2022-09-27T02:53:09.419Z,9.55
2022-09-27T02:56:12.828Z,10.78
2022-09-27T02:59:04.938Z,10.81
2022-09-27T03:01:55.269Z,10.81
2022-09-27T03:05:13.662Z,10.74
2022-09-27T03:08:10.008Z,10.75
2022-09-27T03:14:25.013Z,10.73
2022-09-27T03:17:20.508Z,10.35
2022-09-27T03:19:55.507Z,9.51
2022-09-27T03:22:25.213Z,9.66
2022-09-27T03:24:55.067Z,10.58
2022-09-27T03:27:31.096Z,10.01
2022-09-27T03:33:14.931Z,9.66
2022-09-27T03:35:51.265Z,10.62
2022-09-27T03:38:39.349Z,9.35
2022-09-27T03:41:13.078Z,10.15
2022-09-27T03:43:44.517Z,10.33
2022-09-27T03:46:57.841Z,10.53
2022-09-27T03:49:36.116Z,9.39
2022-09-27T03:52:38.972Z,10.54
2022-09-27T03:55:27.029Z,10.52
2022-09-27T04:00:55.138Z,10.53
2022-09-27T04:03:32.392Z,10.35
2022-09-27T04:06:50.162Z,10.56
2022-09-27T04:08:55.290Z,10.26
2022-09-27T04:11:36.802Z,10.26
2022-09-27T04:14:15.120Z,10.47
2022-09-27T04:17:35.707Z,9.43
2022-09-27T04:22:59.700Z,9.37
2022-09-27T04:25:27.687Z,10.00
2022-09-27T04:28:25.259Z,10.23
2022-09-27T04:30:57.702Z,9.93
2022-09-27T04:33:39.464Z,10.09
2022-09-27T04:36:22.275Z,9.14
2022-09-27T04:39:23.281Z,9.51
2022-09-27T04:49:01.637Z,10.18
2022-09-27T05:04:19.663Z,9.82
2022-09-27T05:08:02.802Z,9.76
2022-09-27T05:17:16.984Z,9.47
2022-09-27T05:19:52.745Z,9.92
2022-09-27T05:24:17.282Z,9.61
2022-09-27T05:25:39.984Z,8.70
2022-09-27T05:31:45.534Z,9.97
2022-09-27T05:34:39.073Z,8.95
2022-09-27T05:43:20.043Z,8.79
2022-09-27T05:46:22.552Z,8.86
2022-09-27T05:49:03.373Z,8.93
2022-09-27T05:52:03.146Z,9.06
2022-09-27T06:01:16.777Z,10.29
2022-09-27T06:16:59.576Z,10.41
2022-09-27T06:19:43.284Z,9.22
2022-09-27T06:23:19.263Z,9.12
2022-09-27T06:35:29.256Z,9.84
2022-09-27T06:38:23.608Z,10.32
2022-09-27T06:41:36.522Z,9.97
2022-09-27T06:44:27.128Z,10.00
2022-09-27T06:55:52.841Z,10.51
2022-09-27T06:59:17.240Z,10.46
2022-09-27T07:04:38.288Z,10.93
2022-09-27T07:10:18.771Z,10.48
2022-09-27T07:13:18.167Z,10.24
2022-09-27T07:16:09.880Z,10.38
2022-09-27T07:18:45.383Z,11.02
2022-09-27T07:21:29.384Z,10.69
2022-09-27T07:24:21.907Z,10.01
2022-09-27T07:26:59.547Z,11.24
2022-09-27T07:30:09.844Z,10.87
2022-09-27T07:33:06.587Z,10.12
2022-09-27T07:36:56.273Z,11.02
2022-09-27T07:45:09.376Z,11.02
2022-09-27T07:50:54.444Z,11.13
2022-09-27T07:56:37.866Z,11.32
2022-09-27T07:59:59.688Z,10.59
2022-09-27T08:03:36.618Z,10.14
2022-09-27T08:06:50.717Z,10.99
2022-09-27T08:09:22.584Z,10.79
2022-09-27T08:12:16.326Z,10.48
2022-09-27T08:33:33.433Z,12.18
2022-09-27T08:36:42.148Z,12.25
2022-09-27T08:39:34.715Z,12.05
2022-09-27T08:42:34.050Z,12.43
2022-09-27T08:45:19.795Z,11.27
2022-09-27T08:48:03.911Z,11.74
2022-09-27T08:50:40.189Z,12.45
2022-09-27T08:56:52.592Z,12.50
2022-09-27T09:00:21.371Z,11.99
2022-09-27T09:03:04.106Z,12.11
2022-09-27T09:05:48.446Z,12.54
2022-09-27T09:08:50.705Z,12.52
2022-09-27T09:15:27.071Z,11.31
2022-09-27T09:21:26.664Z,12.63
2022-09-27T09:28:12.282Z,12.75
2022-09-27T09:31:21.936Z,11.84
2022-09-27T09:34:13.481Z,12.25
2022-09-27T09:40:33.694Z,12.49
2022-09-27T09:43:29.591Z,12.66
2022-09-27T09:46:33.407Z,12.50
2022-09-27T09:49:25.111Z,12.07
2022-09-27T09:55:12.134Z,13.07
2022-09-27T09:58:03.504Z,12.37
2022-09-27T10:03:19.969Z,12.83
2022-09-27T10:06:13.586Z,12.81
2022-09-27T10:08:54.496Z,12.67
2022-09-27T10:15:43.092Z,12.89
2022-09-27T10:17:57.122Z,11.78
2022-09-27T10:20:44.973Z,11.62
2022-09-27T10:23:32.857Z,12.41
2022-09-27T10:26:16.956Z,12.19
2022-09-27T10:28:59.903Z,12.43
2022-09-27T10:31:48.233Z,12.00
2022-09-27T10:34:52.719Z,11.26
2022-09-27T10:40:46.128Z,11.16
2022-09-27T10:45:04.547Z,11.72
2022-09-27T10:47:16.026Z,12.57
2022-09-27T10:49:48.833Z,11.85
2022-09-27T10:55:30.970Z,12.80
2022-09-27T10:58:19.699Z,13.40
2022-09-27T11:04:09.957Z,13.49
2022-09-27T11:06:45.739Z,13.21
2022-09-27T11:10:00.176Z,13.20
2022-09-27T11:12:42.450Z,12.78
2022-09-27T11:15:43.646Z,13.88
2022-09-27T11:18:51.557Z,12.69
2022-09-27T11:22:16.353Z,12.47
2022-09-27T11:25:31.996Z,12.21
2022-09-27T11:28:47.435Z,13.17
2022-09-27T11:31:45.536Z,12.30
2022-09-27T11:38:52.194Z,13.96
2022-09-27T11:55:25.696Z,13.35
2022-09-27T11:58:22.010Z,12.29
2022-09-27T12:05:10.953Z,12.41
2022-09-27T12:11:14.099Z,13.91
2022-09-27T12:14:07.780Z,13.15
2022-09-27T12:16:50.881Z,13.75
2022-09-27T12:26:31.578Z,14.46
2022-09-27T12:29:31.978Z,13.56
2022-09-27T12:38:41.249Z,14.44
2022-09-27T12:44:21.890Z,14.67
2022-09-27T12:47:21.789Z,14.17
2022-09-27T12:54:04.143Z,12.38
2022-09-27T12:57:04.959Z,12.22
2022-09-27T13:00:17.988Z,12.22
2022-09-27T13:03:46.592Z,12.42
2022-09-27T13:07:02.199Z,12.91
2022-09-27T13:10:46.498Z,12.38
2022-09-27T13:17:21.167Z,11.93
2022-09-27T13:20:35.749Z,11.53
2022-09-27T13:27:11.826Z,12.62
2022-09-27T13:30:31.296Z,11.31
2022-09-27T13:53:15.880Z,11.65
2022-09-27T13:55:48.443Z,12.65
2022-09-27T13:59:05.420Z,11.52
2022-09-27T14:01:50.326Z,11.61
2022-09-27T14:04:40.856Z,11.52
2022-09-27T14:07:36.452Z,12.25
2022-09-27T14:10:18.623Z,13.01
2022-09-27T14:13:09.849Z,11.94
2022-09-27T14:15:49.210Z,12.76
2022-09-27T14:18:49.151Z,13.02
2022-09-27T14:21:29.048Z,12.44
2022-09-27T14:27:48.086Z,11.88
2022-09-27T14:31:14.332Z,13.02
2022-09-27T14:33:49.349Z,12.83
2022-09-27T14:36:44.058Z,13.10
2022-09-27T14:43:05.500Z,11.96
2022-09-27T14:46:13.985Z,13.18
2022-09-27T14:51:52.960Z,13.14
2022-09-27T14:54:48.407Z,12.91
2022-09-27T14:57:50.154Z,12.08
2022-09-27T15:00:34.302Z,12.21
2022-09-27T15:06:45.222Z,12.30
2022-09-27T15:09:30.989Z,12.54
2022-09-27T15:12:17.767Z,12.61
2022-09-27T15:14:54.020Z,12.46
2022-09-27T15:17:39.434Z,13.57
2022-09-27T15:20:35.308Z,13.11
2022-09-27T15:23:32.684Z,12.39
2022-09-27T15:26:46.206Z,12.60
2022-09-27T15:29:22.912Z,12.68
2022-09-27T15:32:02.781Z,13.44
2022-09-27T15:34:43.506Z,12.92
2022-09-27T15:37:50.797Z,12.41
2022-09-27T15:43:53.994Z,12.16
2022-09-27T15:49:58.849Z,13.06
2022-09-27T15:52:44.619Z,12.72
2022-09-27T15:55:26.358Z,12.64
2022-09-27T15:58:02.978Z,11.97
2022-09-27T16:00:35.541Z,11.99
2022-09-27T16:03:02.506Z,12.47
2022-09-27T16:05:29.312Z,11.19
2022-09-27T16:08:20.180Z,11.73
2022-09-27T16:10:52.061Z,11.96
2022-09-27T16:13:19.015Z,11.91
2022-09-27T16:15:48.307Z,11.14
2022-09-27T16:18:15.114Z,10.93
2022-09-27T16:20:42.144Z,11.52
2022-09-27T16:23:09.224Z,11.29
2022-09-27T16:25:36.740Z,11.39
2022-09-27T16:28:05.288Z,10.72
2022-09-27T16:30:37.030Z,10.26
2022-09-27T16:33:05.365Z,10.88
2022-09-27T16:35:32.152Z,10.96
2022-09-27T16:37:58.912Z,11.14
2022-09-27T16:40:25.959Z,10.68
2022-09-27T16:42:52.698Z,9.82
2022-09-27T16:45:22.076Z,10.42
2022-09-27T16:47:49.076Z,11.08
2022-09-27T16:50:17.632Z,10.17
2022-09-27T16:52:44.939Z,10.61
2022-09-27T16:55:11.703Z,10.97
2022-09-27T16:57:38.914Z,10.96
2022-09-27T17:00:29.946Z,11.04
2022-09-27T17:02:56.768Z,9.96
2022-09-27T17:05:37.305Z,9.67
2022-09-27T17:08:04.048Z,9.69
2022-09-27T17:10:30.988Z,9.79
2022-09-27T17:12:58.008Z,10.32
2022-09-27T17:15:28.248Z,9.56
2022-09-27T17:17:59.880Z,9.54
2022-09-27T17:20:36.370Z,9.78
2022-09-27T17:23:05.143Z,9.63
2022-09-27T17:25:33.727Z,9.96
2022-09-27T17:28:06.525Z,10.26
2022-09-27T17:30:42.308Z,9.54
2022-09-27T17:33:12.035Z,10.73
2022-09-27T17:35:43.064Z,10.22
2022-09-27T17:38:09.776Z,9.55
2022-09-27T17:40:36.786Z,10.16
2022-09-27T17:43:06.474Z,9.36
2022-09-27T17:45:37.502Z,9.53
2022-09-27T17:48:12.876Z,9.48
2022-09-27T17:50:46.014Z,10.35
2022-09-27T17:53:15.539Z,9.37
2022-09-27T17:55:52.800Z,9.50
2022-09-27T17:58:20.043Z,10.65
2022-09-27T18:00:49.026Z,10.36
2022-09-27T18:03:18.997Z,9.43
2022-09-27T18:05:49.803Z,10.12
2022-09-27T18:08:19.685Z,9.58
2022-09-27T18:10:46.582Z,10.43
2022-09-27T18:13:15.165Z,10.67
2022-09-27T18:15:54.444Z,9.59
2022-09-27T18:18:27.481Z,9.60
2022-09-27T18:21:01.456Z,10.32
2022-09-27T18:23:39.347Z,10.12
2022-09-27T18:26:11.339Z,9.87
2022-09-27T18:28:40.250Z,9.86
2022-09-27T18:31:11.493Z,9.36
2022-09-27T18:33:39.224Z,10.10
2022-09-27T18:36:11.580Z,10.05
2022-09-27T18:38:40.910Z,9.82
2022-09-27T18:41:09.344Z,10.43
2022-09-27T18:43:38.944Z,9.99
2022-09-27T18:46:30.888Z,9.78
2022-09-27T18:48:54.298Z,9.41
2022-09-27T18:51:24.146Z,9.94
2022-09-27T18:53:56.387Z,9.38
2022-09-27T18:56:25.735Z,9.92
2022-09-27T18:58:53.267Z,9.22
2022-09-27T19:01:21.494Z,9.62
2022-09-27T19:03:48.500Z,10.38
2022-09-27T19:06:20.486Z,10.34
2022-09-27T19:09:03.660Z,9.13
2022-09-27T19:11:30.947Z,9.51
2022-09-27T19:13:58.753Z,9.88
2022-09-27T19:16:31.218Z,10.26
2022-09-27T19:19:05.398Z,10.12
2022-09-27T19:24:38.372Z,9.10
2022-09-27T19:27:21.763Z,9.80
2022-09-27T19:30:01.579Z,9.22
2022-09-27T19:32:34.853Z,9.94
2022-09-27T19:35:02.119Z,9.13
2022-09-27T19:37:31.064Z,10.24
2022-09-27T19:40:04.743Z,9.05
2022-09-27T19:42:37.818Z,9.88
2022-09-27T19:45:11.787Z,9.41
2022-09-27T19:47:47.392Z,9.96
2022-09-27T19:50:29.191Z,9.60
2022-09-27T19:52:58.839Z,9.68
2022-09-27T19:55:47.849Z,9.86
2022-09-27T19:58:16.980Z,9.76
2022-09-27T20:00:47.227Z,10.04
2022-09-27T20:03:21.652Z,9.73
2022-09-27T20:05:57.065Z,10.03
2022-09-27T20:08:32.635Z,9.76
2022-09-27T20:11:52.440Z,8.69
2022-09-27T20:14:20.861Z,9.32
2022-09-27T20:16:55.743Z,10.18
2022-09-27T20:19:36.835Z,9.01
2022-09-27T20:22:08.743Z,8.84
2022-09-27T20:24:36.820Z,10.15
2022-09-27T20:27:13.852Z,9.52
2022-09-27T20:29:44.843Z,8.96
2022-09-27T20:32:28.875Z,9.03
2022-09-27T20:34:55.740Z,9.59
2022-09-27T20:37:24.090Z,9.34
2022-09-27T20:39:50.782Z,8.99
2022-09-27T20:42:25.825Z,9.07
2022-09-27T20:45:00.133Z,9.27
2022-09-27T20:51:29.758Z,9.22
2022-09-27T21:00:06.696Z,10.09
2022-09-27T21:02:36.838Z,10.03
2022-09-27T21:05:03.982Z,10.06
2022-09-27T21:07:30.608Z,9.97
2022-09-27T21:09:57.487Z,10.08
2022-09-27T21:12:24.227Z,9.88
2022-09-27T21:14:56.464Z,9.86
2022-09-27T21:17:26.415Z,9.74
2022-09-27T21:19:53.356Z,8.80
2022-09-27T21:22:26.063Z,8.67
2022-09-27T21:24:54.468Z,8.97
2022-09-27T21:27:25.530Z,9.33
2022-09-27T21:29:52.419Z,9.07
2022-09-27T21:32:19.288Z,10.04
2022-09-27T21:34:50.334Z,8.81
2022-09-27T21:37:30.891Z,9.83
2022-09-27T21:40:04.753Z,9.10
2022-09-27T21:42:39.010Z,10.11
2022-09-27T21:45:09.906Z,8.84
2022-09-27T21:47:36.658Z,9.91
2022-09-27T21:50:07.086Z,9.81
2022-09-27T21:52:35.969Z,10.12
2022-09-27T21:55:02.837Z,8.99
2022-09-27T21:57:30.437Z,8.87
2022-09-27T22:00:00.547Z,9.81
2022-09-27T22:02:27.990Z,9.61
2022-09-27T22:04:55.106Z,9.82
2022-09-27T22:07:24.208Z,9.68
2022-09-27T22:09:51.097Z,9.44
2022-09-27T22:12:18.265Z,9.45
2022-09-27T22:14:45.836Z,9.03
2022-09-27T22:17:17.662Z,8.86
2022-09-27T22:19:44.486Z,8.91
2022-09-27T22:22:11.294Z,10.15
2022-09-27T22:24:42.015Z,9.78
2022-09-27T22:27:08.794Z,9.88
2022-09-27T22:29:35.766Z,8.87
2022-09-27T22:32:02.824Z,8.91
2022-09-27T22:34:35.529Z,9.86
2022-09-27T22:37:02.352Z,8.83
2022-09-27T22:39:32.856Z,10.12
2022-09-27T22:42:05.360Z,8.94
2022-09-27T22:44:33.916Z,8.96
2022-09-27T22:47:03.278Z,9.77
2022-09-27T22:49:34.110Z,10.00
2022-09-27T22:52:12.172Z,8.62
2022-09-27T22:54:41.221Z,9.57
2022-09-27T22:57:16.980Z,9.73
2022-09-27T23:02:28.044Z,9.31
2022-09-27T23:05:12.190Z,9.11
2022-09-27T23:07:42.965Z,8.58
2022-09-27T23:10:12.159Z,9.39
2022-09-27T23:12:40.731Z,9.49
2022-09-27T23:15:09.064Z,9.10
2022-09-27T23:17:37.131Z,8.72
2022-09-27T23:20:05.409Z,8.70
2022-09-27T23:22:33.615Z,9.70
2022-09-27T23:25:00.448Z,8.76
2022-09-27T23:27:30.603Z,9.34
2022-09-27T23:30:06.459Z,8.92
2022-09-27T23:32:35.292Z,9.11
2022-09-27T23:35:07.582Z,9.29
2022-09-27T23:37:48.121Z,8.87
2022-09-27T23:40:21.977Z,9.22
2022-09-27T23:42:59.578Z,8.55
2022-09-27T23:45:34.445Z,8.51
2022-09-27T23:48:10.533Z,8.98
2022-09-27T23:50:42.701Z,8.56
2022-09-27T23:53:16.548Z,8.46
2022-09-27T23:55:47.392Z,9.15
2022-09-27T23:58:16.655Z,9.50
